createdAt,value
2019-04-06T00:01:43.318Z,10.64
2019-04-06T00:04:14.295Z,10.69
2019-04-06T00:06:44.211Z,10.71
2019-04-06T00:09:13.996Z,10.73
2019-04-06T00:11:44.107Z,10.76
2019-04-06T00:14:17.081Z,10.80
2019-04-06T00:16:46.998Z,10.83
2019-04-06T00:19:17.243Z,10.85
2019-04-06T00:21:46.995Z,10.86
2019-04-06T00:24:17.090Z,10.88
2019-04-06T00:26:47.089Z,10.92
2019-04-06T00:29:17.140Z,10.91
2019-04-06T00:32:12.981Z,10.91
2019-04-06T00:34:43.346Z,10.95
2019-04-06T00:37:13.612Z,11.00
2019-04-06T00:39:43.597Z,11.03
2019-04-06T00:42:14.015Z,11.03
2019-04-06T00:44:43.949Z,11.04
2019-04-06T00:47:14.459Z,11.03
2019-04-06T00:49:44.506Z,11.00
2019-04-06T00:52:15.690Z,10.99
2019-04-06T00:54:45.482Z,11.03
2019-04-06T00:57:15.311Z,11.09
2019-04-06T00:59:45.464Z,11.11
2019-04-06T01:02:15.481Z,11.12
2019-04-06T01:04:45.723Z,11.16
2019-04-06T01:07:16.511Z,11.17
2019-04-06T01:09:46.477Z,10.58
2019-04-06T01:12:16.322Z,11.22
2019-04-06T01:14:46.658Z,11.21
2019-04-06T01:17:16.769Z,11.21
2019-04-06T01:19:46.970Z,11.20
2019-04-06T01:22:17.414Z,11.20
2019-04-06T01:24:47.286Z,11.19
2019-04-06T01:27:20.389Z,11.19
2019-04-06T01:29:50.797Z,11.23
2019-04-06T01:32:20.941Z,11.21
2019-04-06T01:34:50.980Z,11.22
2019-04-06T01:37:21.232Z,11.24
2019-04-06T01:39:54.563Z,11.22
2019-04-06T01:42:25.809Z,11.17
2019-04-06T01:44:55.851Z,11.19
2019-04-06T01:47:30.193Z,11.20
2019-04-06T01:50:00.035Z,11.15
2019-04-06T01:52:31.057Z,11.18
2019-04-06T01:55:01.284Z,11.19
2019-04-06T01:57:32.112Z,11.13
2019-04-06T02:00:07.994Z,11.10
2019-04-06T02:02:41.484Z,11.10
2019-04-06T02:05:15.998Z,11.10
2019-04-06T02:07:48.435Z,11.13
2019-04-06T02:10:19.851Z,11.09
2019-04-06T02:12:49.919Z,11.09
2019-04-06T02:15:24.219Z,11.10
2019-04-06T02:17:54.254Z,11.11
2019-04-06T02:20:24.350Z,11.04
2019-04-06T02:22:54.788Z,11.01
2019-04-06T02:25:25.856Z,11.04
2019-04-06T02:27:55.820Z,11.00
2019-04-06T02:30:34.013Z,11.02
2019-04-06T02:33:22.859Z,10.99
2019-04-06T02:36:16.117Z,10.95
2019-04-06T02:38:52.741Z,10.92
2019-04-06T02:41:42.040Z,10.89
2019-04-06T02:44:12.245Z,10.91
2019-04-06T02:46:42.664Z,10.90
2019-04-06T02:49:12.637Z,10.31
2019-04-06T02:51:42.837Z,10.87
2019-04-06T02:54:13.131Z,10.85
2019-04-06T02:56:46.130Z,10.86
2019-04-06T02:59:15.008Z,10.83
2019-04-06T03:01:45.137Z,10.76
2019-04-06T03:04:18.396Z,10.75
2019-04-06T03:06:48.267Z,10.76
2019-04-06T03:09:18.314Z,10.78
2019-04-06T03:11:48.183Z,10.75
2019-04-06T03:14:19.857Z,10.75
2019-04-06T03:16:49.664Z,10.75
2019-04-06T03:19:20.949Z,10.79
2019-04-06T03:21:51.203Z,10.80
2019-04-06T03:24:24.102Z,10.82
2019-04-06T03:27:02.039Z,10.81
2019-04-06T03:29:25.864Z,10.80
2019-04-06T03:31:55.841Z,10.79
2019-04-06T03:34:26.153Z,10.77
2019-04-06T03:36:56.133Z,10.78
2019-04-06T03:39:25.918Z,10.76
2019-04-06T03:41:56.184Z,10.74
2019-04-06T03:44:27.295Z,10.74
2019-04-06T03:46:57.164Z,10.71
2019-04-06T03:49:26.995Z,10.64
2019-04-06T03:51:56.770Z,10.69
2019-04-06T03:54:26.584Z,10.69
2019-04-06T03:56:56.419Z,10.65
2019-04-06T03:59:27.023Z,10.68
2019-04-06T04:01:56.925Z,10.67
2019-04-06T04:04:26.760Z,10.67
2019-04-06T04:06:56.851Z,10.68
2019-04-06T04:09:26.657Z,10.67
2019-04-06T04:11:56.655Z,10.68
2019-04-06T04:14:26.951Z,10.69
2019-04-06T04:16:57.025Z,10.72
2019-04-06T04:19:26.887Z,10.69
2019-04-06T04:21:57.068Z,10.66
2019-04-06T04:24:27.138Z,10.64
2019-04-06T04:26:56.926Z,10.62
2019-04-06T04:29:26.860Z,10.62
2019-04-06T04:31:56.787Z,10.62
2019-04-06T04:34:26.511Z,10.62
2019-04-06T04:36:56.829Z,10.63
2019-04-06T04:39:26.652Z,10.61
2019-04-06T04:41:56.435Z,10.59
2019-04-06T04:44:26.680Z,10.61
2019-04-06T04:46:56.428Z,10.61
2019-04-06T04:49:26.412Z,10.62
2019-04-06T04:51:56.151Z,10.59
2019-04-06T04:54:26.093Z,10.60
2019-04-06T04:56:55.945Z,10.59
2019-04-06T04:59:25.830Z,10.61
2019-04-06T05:01:56.096Z,10.60
2019-04-06T05:04:26.000Z,10.59
2019-04-06T05:06:55.816Z,10.62
2019-04-06T05:09:25.708Z,10.66
2019-04-06T05:11:56.173Z,10.65
2019-04-06T05:15:00.626Z,10.66
2019-04-06T05:17:30.934Z,10.66
2019-04-06T05:20:01.284Z,10.66
2019-04-06T05:22:31.123Z,10.69
2019-04-06T05:25:00.968Z,10.73
2019-04-06T05:27:31.253Z,10.79
2019-04-06T05:30:01.120Z,10.81
2019-04-06T05:32:30.977Z,10.87
2019-04-06T05:35:01.658Z,10.90
2019-04-06T05:37:31.528Z,10.99
2019-04-06T05:40:02.231Z,11.04
2019-04-06T05:42:32.672Z,11.10
2019-04-06T05:45:02.918Z,11.19
2019-04-06T05:47:32.770Z,11.30
2019-04-06T05:50:03.212Z,11.35
2019-04-06T05:52:33.140Z,11.35
2019-04-06T05:55:03.354Z,11.41
2019-04-06T05:57:34.251Z,11.46
2019-04-06T06:00:05.547Z,11.50
2019-04-06T06:02:35.722Z,11.57
2019-04-06T06:05:08.565Z,11.69
2019-04-06T06:07:39.727Z,11.76
2019-04-06T06:10:09.679Z,11.86
2019-04-06T06:12:41.334Z,11.91
2019-04-06T06:15:11.209Z,11.95
2019-04-06T06:17:41.060Z,11.96
2019-04-06T06:20:11.561Z,11.99
2019-04-06T06:22:41.568Z,12.01
2019-04-06T06:25:11.854Z,12.03
2019-04-06T06:27:41.676Z,12.06
2019-04-06T06:30:11.778Z,12.01
2019-04-06T06:32:41.780Z,12.01
2019-04-06T06:35:12.182Z,11.99
2019-04-06T06:37:42.360Z,11.96
2019-04-06T06:40:12.311Z,11.96
2019-04-06T06:42:42.057Z,12.04
2019-04-06T06:45:12.302Z,12.15
2019-04-06T06:47:42.441Z,12.32
2019-04-06T06:50:12.418Z,12.39
2019-04-06T06:52:43.376Z,12.45
2019-04-06T06:55:13.976Z,12.39
2019-04-06T06:57:43.739Z,12.20
2019-04-06T07:00:14.136Z,11.31
2019-04-06T07:02:44.054Z,11.86
2019-04-06T07:05:14.467Z,11.86
2019-04-06T07:07:44.237Z,11.89
2019-04-06T07:10:14.501Z,11.94
2019-04-06T07:12:44.842Z,12.03
2019-04-06T07:15:14.931Z,12.30
2019-04-06T07:17:44.732Z,12.47
2019-04-06T07:20:17.945Z,12.00
2019-04-06T07:22:47.718Z,12.07
2019-04-06T07:25:21.802Z,12.82
2019-04-06T07:27:52.364Z,12.94
2019-04-06T07:30:22.461Z,12.99
2019-04-06T07:32:55.409Z,12.98
2019-04-06T07:35:25.614Z,12.94
2019-04-06T07:38:00.119Z,12.86
2019-04-06T07:40:32.617Z,12.87
2019-04-06T07:43:03.145Z,12.94
2019-04-06T07:45:33.119Z,13.15
2019-04-06T07:48:03.277Z,13.31
2019-04-06T07:50:33.865Z,13.45
2019-04-06T07:53:03.668Z,13.58
2019-04-06T07:55:33.758Z,13.93
2019-04-06T07:58:03.717Z,14.19
2019-04-06T08:00:33.676Z,14.37
2019-04-06T08:03:03.742Z,14.42
2019-04-06T08:05:34.503Z,14.41
2019-04-06T08:08:04.289Z,14.39
2019-04-06T08:10:34.288Z,14.37
2019-04-06T08:13:04.520Z,14.42
2019-04-06T08:15:34.388Z,14.57
2019-04-06T08:18:04.606Z,14.53
2019-04-06T08:20:34.608Z,13.86
2019-04-06T08:23:04.997Z,14.44
2019-04-06T08:25:35.070Z,14.39
2019-04-06T08:28:05.514Z,14.33
2019-04-06T08:30:44.726Z,14.31
2019-04-06T08:33:07.013Z,14.31
2019-04-06T08:35:36.945Z,14.35
2019-04-06T08:38:07.418Z,14.55
2019-04-06T08:40:37.766Z,14.66
2019-04-06T08:43:07.621Z,14.79
2019-04-06T08:45:37.745Z,14.86
2019-04-06T08:48:11.466Z,14.88
2019-04-06T08:50:41.388Z,15.07
2019-04-06T08:53:11.270Z,15.37
2019-04-06T08:55:42.046Z,15.45
2019-04-06T08:58:11.841Z,15.39
2019-04-06T09:00:41.765Z,15.27
2019-04-06T09:03:11.710Z,15.06
2019-04-06T09:05:41.547Z,14.89
2019-04-06T09:08:14.835Z,14.91
2019-04-06T09:10:44.780Z,14.93
2019-04-06T09:13:17.584Z,14.26
2019-04-06T09:15:47.652Z,14.86
2019-04-06T09:18:17.488Z,15.01
2019-04-06T09:20:47.327Z,15.00
2019-04-06T09:23:17.428Z,15.26
2019-04-06T09:25:47.440Z,15.32
2019-04-06T09:28:18.259Z,15.21
2019-04-06T09:30:48.499Z,15.09
2019-04-06T09:33:18.588Z,14.86
2019-04-06T09:35:48.553Z,14.68
2019-04-06T09:38:21.513Z,14.72
2019-04-06T09:40:51.686Z,14.89
2019-04-06T09:43:22.275Z,15.05
2019-04-06T09:46:14.674Z,15.26
2019-04-06T09:49:02.788Z,15.22
2019-04-06T09:51:50.217Z,15.39
2019-04-06T09:54:34.529Z,15.44
2019-04-06T09:57:25.512Z,15.36
2019-04-06T10:00:13.406Z,15.27
2019-04-06T10:03:11.124Z,15.10
2019-04-06T10:06:03.543Z,15.01
2019-04-06T10:08:43.295Z,14.97
2019-04-06T10:11:30.265Z,14.94
2019-04-06T10:14:24.762Z,14.91
2019-04-06T10:17:13.605Z,14.87
2019-04-06T10:19:50.040Z,14.87
2019-04-06T10:22:37.667Z,14.89
2019-04-06T10:25:24.352Z,15.00
2019-04-06T10:28:14.212Z,14.99
2019-04-06T10:31:01.339Z,15.01
2019-04-06T10:33:41.131Z,15.24
2019-04-06T10:36:19.185Z,15.25
2019-04-06T10:39:08.096Z,15.42
2019-04-06T10:42:06.124Z,15.52
2019-04-06T10:44:53.888Z,15.67
2019-04-06T10:47:40.847Z,15.72
2019-04-06T10:50:32.603Z,15.72
2019-04-06T10:53:40.190Z,15.88
2019-04-06T10:56:31.358Z,15.93
2019-04-06T10:59:19.983Z,16.06
2019-04-06T11:02:02.708Z,16.15
2019-04-06T11:04:48.244Z,16.27
2019-04-06T11:07:39.214Z,16.44
2019-04-06T11:10:29.129Z,16.61
2019-04-06T11:13:17.947Z,16.76
2019-04-06T11:16:09.817Z,16.93
2019-04-06T11:19:11.340Z,17.07
2019-04-06T11:22:09.511Z,16.67
2019-04-06T11:25:05.240Z,17.40
2019-04-06T11:27:57.526Z,17.59
2019-04-06T11:30:44.895Z,17.79
2019-04-06T11:33:33.868Z,17.99
2019-04-06T11:36:13.857Z,18.21
2019-04-06T11:39:18.595Z,18.39
2019-04-06T11:42:03.032Z,18.43
2019-04-06T11:44:44.910Z,18.52
2019-04-06T11:47:49.222Z,18.81
2019-04-06T11:50:41.634Z,19.04
2019-04-06T11:53:17.752Z,19.26
2019-04-06T11:56:04.290Z,19.56
2019-04-06T11:58:57.960Z,19.61
2019-04-06T12:01:51.747Z,19.72
2019-04-06T12:04:40.460Z,19.93
2019-04-06T12:07:19.527Z,20.05
2019-04-06T12:10:07.047Z,20.13
2019-04-06T12:12:56.591Z,19.68
2019-04-06T12:15:48.309Z,20.30
2019-04-06T12:18:23.049Z,20.40
2019-04-06T12:21:11.835Z,20.45
2019-04-06T12:23:58.370Z,20.53
2019-04-06T12:26:45.841Z,20.63
2019-04-06T12:29:27.433Z,20.74
2019-04-06T12:32:14.508Z,20.86
2019-04-06T12:35:18.870Z,21.02
2019-04-06T12:38:04.433Z,20.99
2019-04-06T12:41:02.027Z,20.90
2019-04-06T12:44:03.429Z,21.06
2019-04-06T12:46:51.760Z,21.16
2019-04-06T12:49:37.211Z,21.19
2019-04-06T12:52:29.604Z,21.24
2019-04-06T12:55:21.407Z,21.32
2019-04-06T12:58:11.172Z,21.44
2019-04-06T13:00:53.140Z,21.47
2019-04-06T13:03:41.282Z,21.58
2019-04-06T13:06:31.628Z,21.57
2019-04-06T13:09:29.761Z,21.74
2019-04-06T13:12:17.195Z,21.80
2019-04-06T13:15:10.796Z,21.83
2019-04-06T13:18:06.081Z,21.91
2019-04-06T13:21:10.362Z,21.90
2019-04-06T13:23:57.002Z,22.01
2019-04-06T13:26:39.960Z,22.06
2019-04-06T13:29:34.893Z,22.02
2019-04-06T13:32:22.727Z,21.89
2019-04-06T13:35:29.362Z,21.75
2019-04-06T13:38:33.383Z,21.05
2019-04-06T13:41:20.809Z,21.56
2019-04-06T13:44:13.155Z,21.59
2019-04-06T13:47:00.626Z,21.58
2019-04-06T13:49:48.639Z,21.69
2019-04-06T13:52:23.883Z,21.77
2019-04-06T13:55:26.535Z,21.82
2019-04-06T13:58:11.174Z,21.86
2019-04-06T14:00:58.703Z,21.90
2019-04-06T14:03:56.768Z,21.47
2019-04-06T14:06:48.749Z,22.14
2019-04-06T14:09:52.537Z,22.27
2019-04-06T14:12:41.543Z,22.18
2019-04-06T14:15:24.937Z,22.20
2019-04-06T14:18:26.518Z,22.26
2019-04-06T14:21:27.704Z,22.32
2019-04-06T14:24:22.801Z,22.56
2019-04-06T14:27:11.409Z,22.63
2019-04-06T14:29:52.573Z,22.63
2019-04-06T14:32:42.661Z,22.63
2019-04-06T14:35:30.648Z,22.68
2019-04-06T14:38:20.735Z,22.58
2019-04-06T14:41:11.843Z,22.68
2019-04-06T14:43:52.520Z,22.56
2019-04-06T14:46:53.823Z,22.61
2019-04-06T14:49:54.866Z,22.65
2019-04-06T14:52:42.673Z,22.66
2019-04-06T14:55:20.203Z,22.69
2019-04-06T14:58:14.729Z,22.64
2019-04-06T15:01:11.139Z,22.65
2019-04-06T15:04:09.179Z,22.69
2019-04-06T15:07:11.968Z,22.67
2019-04-06T15:09:56.687Z,22.70
2019-04-06T15:12:40.518Z,22.58
2019-04-06T15:15:24.081Z,22.44
2019-04-06T15:18:17.191Z,22.40
2019-04-06T15:20:56.089Z,22.47
2019-04-06T15:23:32.922Z,22.44
2019-04-06T15:26:18.313Z,22.48
2019-04-06T15:29:16.252Z,22.54
2019-04-06T15:32:03.452Z,22.56
2019-04-06T15:35:03.146Z,22.36
2019-04-06T15:37:43.952Z,22.55
2019-04-06T15:40:27.746Z,22.60
2019-04-06T15:43:13.886Z,22.57
2019-04-06T15:45:57.432Z,22.59
2019-04-06T15:48:49.710Z,22.58
2019-04-06T15:51:44.650Z,22.59
2019-04-06T15:54:23.516Z,22.69
2019-04-06T15:57:28.165Z,22.51
2019-04-06T16:00:29.179Z,22.47
2019-04-06T16:03:18.987Z,22.42
2019-04-06T16:06:03.872Z,22.18
2019-04-06T16:08:42.791Z,21.89
2019-04-06T16:11:32.647Z,21.87
2019-04-06T16:14:28.046Z,21.87
2019-04-06T16:17:15.811Z,21.91
2019-04-06T16:20:02.079Z,21.78
2019-04-06T16:22:38.583Z,21.84
2019-04-06T16:25:30.797Z,21.78
2019-04-06T16:28:34.518Z,21.74
2019-04-06T16:31:24.978Z,21.62
2019-04-06T16:34:28.829Z,21.38
2019-04-06T16:37:18.018Z,21.32
2019-04-06T16:40:05.829Z,21.28
2019-04-06T16:42:47.061Z,21.16
2019-04-06T16:45:35.623Z,21.22
2019-04-06T16:48:22.038Z,21.33
2019-04-06T16:51:15.087Z,21.35
2019-04-06T16:54:13.398Z,21.42
2019-04-06T16:56:49.645Z,21.39
2019-04-06T16:59:29.870Z,21.27
2019-04-06T17:02:21.542Z,21.22
2019-04-06T17:05:01.323Z,21.17
2019-04-06T17:07:50.061Z,21.16
2019-04-06T17:10:37.102Z,21.06
2019-04-06T17:13:20.272Z,21.03
2019-04-06T17:16:08.682Z,20.99
2019-04-06T17:18:56.070Z,20.92
2019-04-06T17:21:56.757Z,20.81
2019-04-06T17:24:47.013Z,20.70
2019-04-06T17:27:39.643Z,20.56
2019-04-06T17:30:31.543Z,20.43
2019-04-06T17:33:21.783Z,20.26
2019-04-06T17:36:15.819Z,20.11
2019-04-06T17:39:07.801Z,19.95
2019-04-06T17:41:47.704Z,19.71
2019-04-06T17:44:45.527Z,19.55
2019-04-06T17:47:32.907Z,19.37
2019-04-06T17:50:23.764Z,19.17
2019-04-06T17:53:20.533Z,18.97
2019-04-06T17:56:12.567Z,18.83
2019-04-06T17:59:02.386Z,18.66
2019-04-06T18:01:44.651Z,18.49
2019-04-06T18:04:26.541Z,18.36
2019-04-06T18:07:15.686Z,18.21
2019-04-06T18:10:08.147Z,18.06
2019-04-06T18:13:00.809Z,17.97
2019-04-06T18:15:31.902Z,17.84
2019-04-06T18:18:05.511Z,17.72
2019-04-06T18:20:35.770Z,17.63
2019-04-06T18:23:05.744Z,17.54
2019-04-06T18:25:37.759Z,17.46
2019-04-06T18:28:09.421Z,17.40
2019-04-06T18:30:39.658Z,17.39
2019-04-06T18:33:14.475Z,17.36
2019-04-06T18:35:44.941Z,17.38
2019-04-06T18:38:19.923Z,17.39
2019-04-06T18:40:49.801Z,17.37
2019-04-06T18:43:23.252Z,17.32
2019-04-06T18:45:53.246Z,17.31
2019-04-06T18:48:23.654Z,17.29
2019-04-06T18:50:53.711Z,17.27
2019-04-06T18:53:23.810Z,17.27
2019-04-06T18:55:53.968Z,17.27
2019-04-06T18:58:24.211Z,16.74
2019-04-06T19:00:56.314Z,17.26
2019-04-06T19:03:26.846Z,17.20
2019-04-06T19:05:57.996Z,17.18
2019-04-06T19:08:28.701Z,17.12
2019-04-06T19:10:58.958Z,17.04
2019-04-06T19:13:28.908Z,16.93
2019-04-06T19:16:01.973Z,16.85
2019-04-06T19:18:31.888Z,16.74
2019-04-06T19:21:02.072Z,16.68
2019-04-06T19:23:32.172Z,16.62
2019-04-06T19:26:02.791Z,16.56
2019-04-06T19:28:32.993Z,16.48
2019-04-06T19:31:03.171Z,16.40
2019-04-06T19:33:33.302Z,16.30
2019-04-06T19:36:03.255Z,16.20
2019-04-06T19:38:33.678Z,16.10
2019-04-06T19:41:03.871Z,16.01
2019-04-06T19:43:34.188Z,15.90
2019-04-06T19:46:05.424Z,15.81
2019-04-06T19:48:36.015Z,15.72
2019-04-06T19:51:08.604Z,15.63
2019-04-06T19:53:39.076Z,15.53
2019-04-06T19:56:10.235Z,15.43
2019-04-06T19:58:40.199Z,15.35
2019-04-06T20:01:10.201Z,15.27
2019-04-06T20:03:40.748Z,15.19
2019-04-06T20:06:11.365Z,15.08
2019-04-06T20:08:41.726Z,15.01
2019-04-06T20:11:12.343Z,14.95
2019-04-06T20:13:42.593Z,14.87
2019-04-06T20:16:12.738Z,14.79
2019-04-06T20:18:43.175Z,14.72
2019-04-06T20:21:14.263Z,14.65
2019-04-06T20:23:47.546Z,14.59
2019-04-06T20:26:17.484Z,14.54
2019-04-06T20:28:47.880Z,14.51
2019-04-06T20:31:18.446Z,14.50
2019-04-06T20:33:51.853Z,14.46
2019-04-06T20:36:20.504Z,14.45
2019-04-06T20:38:54.959Z,14.39
2019-04-06T20:41:24.940Z,14.36
2019-04-06T20:43:55.047Z,14.28
2019-04-06T20:46:25.034Z,14.23
2019-04-06T20:48:58.164Z,14.21
2019-04-06T20:51:29.172Z,14.14
2019-04-06T20:54:04.324Z,14.09
2019-04-06T20:56:35.050Z,14.04
2019-04-06T20:59:05.561Z,14.00
2019-04-06T21:01:35.978Z,13.94
2019-04-06T21:04:09.420Z,13.92
2019-04-06T21:06:40.085Z,13.89
2019-04-06T21:09:14.101Z,13.86
2019-04-06T21:11:44.863Z,13.85
2019-04-06T21:14:15.444Z,13.80
2019-04-06T21:16:46.878Z,13.77
2019-04-06T21:19:18.039Z,13.73
2019-04-06T21:21:48.532Z,13.69
2019-04-06T21:24:19.078Z,13.65
2019-04-06T21:26:49.987Z,13.62
2019-04-06T21:29:22.560Z,13.56
2019-04-06T21:31:55.259Z,13.52
2019-04-06T21:34:29.291Z,13.48
2019-04-06T21:37:08.550Z,13.45
2019-04-06T21:39:54.572Z,13.40
2019-04-06T21:42:34.440Z,13.34
2019-04-06T21:45:18.638Z,13.31
2019-04-06T21:47:50.448Z,13.31
2019-04-06T21:50:21.899Z,13.28
2019-04-06T21:52:55.800Z,13.27
2019-04-06T21:55:26.307Z,13.25
2019-04-06T21:57:57.476Z,13.25
2019-04-06T22:00:47.652Z,13.22
2019-04-06T22:07:07.451Z,13.17
2019-04-06T22:09:37.855Z,13.12
2019-04-06T22:12:12.786Z,13.11
2019-04-06T22:14:44.031Z,13.08
2019-04-06T22:17:14.507Z,13.06
2019-04-06T22:19:44.899Z,13.04
2019-04-06T22:22:15.599Z,13.00
2019-04-06T22:24:46.341Z,12.96
2019-04-06T22:27:16.374Z,12.94
2019-04-06T22:29:47.044Z,12.94
2019-04-06T22:32:21.565Z,12.92
2019-04-06T22:34:54.468Z,12.90
2019-04-06T22:37:24.561Z,12.86
2019-04-06T22:39:58.102Z,12.84
2019-04-06T22:42:28.815Z,12.80
2019-04-06T22:44:58.849Z,12.78
2019-04-06T22:47:31.906Z,12.75
2019-04-06T22:50:02.738Z,12.71
2019-04-06T22:52:32.746Z,12.68
2019-04-06T22:55:03.219Z,12.64
2019-04-06T22:57:33.889Z,12.60
2019-04-06T23:00:06.738Z,12.57
2019-04-06T23:02:49.032Z,12.53
2019-04-06T23:05:25.812Z,12.51
2019-04-06T23:07:57.347Z,12.46
2019-04-06T23:10:27.951Z,12.42
2019-04-06T23:13:00.845Z,12.39
2019-04-06T23:15:31.398Z,12.36
2019-04-06T23:18:04.778Z,12.32
2019-04-06T23:20:36.791Z,12.28
2019-04-06T23:23:07.565Z,12.25
2019-04-06T23:25:39.020Z,12.23
2019-04-06T23:28:09.341Z,12.19
2019-04-06T23:30:40.884Z,12.15
2019-04-06T23:33:11.252Z,12.12
2019-04-06T23:35:41.396Z,12.08
2019-04-06T23:38:11.467Z,12.05
2019-04-06T23:40:42.044Z,12.03
2019-04-06T23:43:11.974Z,12.00
2019-04-06T23:45:42.154Z,11.97
2019-04-06T23:48:12.070Z,11.93
2019-04-06T23:50:41.978Z,11.90
2019-04-06T23:53:12.493Z,11.89
2019-04-06T23:55:49.085Z,11.88
2019-04-06T23:58:19.210Z,11.88
